This is the latest recevied weather packets stored in our database for station/object KE0LFX. If no packets are shown the sender has not sent any weather packets the latest 1 day(s).
| Time | Temp. | Humidity | Pressure | Rain* | Wind** | Luminosity | Snow |
|---|---|---|---|---|---|---|---|
| 1778017577 | 15° C | 38% | 1013.4 hPa | 0 mm | 1.34 m/s, 277° | 85 W/m² | - |
| 1778017274 | 15° C | 39% | 1013.5 hPa | 0 mm | 0.45 m/s, 265° | 95 W/m² | - |
| 1778016971 | 15° C | 39% | 1013.5 hPa | 0 mm | 0.45 m/s, 311° | 94 W/m² | - |
| 1778016668 | 15° C | 39% | 1013.3 hPa | 0 mm | 0 m/s | 110 W/m² | - |
| 1778016364 | 15° C | 37% | 1013.4 hPa | 0 mm | 2.68 m/s, 244° | 130 W/m² | - |
| 1778016066 | 15° C | 36% | 1013.4 hPa | 0 mm | 1.79 m/s, 326° | 142 W/m² | - |
| 1778015758 | 15° C | 39% | 1013.4 hPa | 0 mm | 0.45 m/s, 268° | 157 W/m² | - |
| 1778015456 | 15° C | 38% | 1013.5 hPa | 0 mm | 0 m/s | 192 W/m² | - |
| 1778015152 | 15° C | 37% | 1013.6 hPa | 0 mm | 1.34 m/s, 265° | 164 W/m² | - |
| 1778014849 | 15° C | 37% | 1013.8 hPa | 0 mm | 1.79 m/s, 258° | 158 W/m² | - |
| 1778014547 | 15.56° C | 39% | 1013.8 hPa | 0 mm | 0 m/s | 207 W/m² | - |
| 1778014244 | 15° C | 37% | 1013.8 hPa | 0 mm | 0.45 m/s, 270° | 321 W/m² | - |
| 1778013942 | 14.44° C | 38% | 1013.7 hPa | 0 mm | 1.79 m/s, 242° | 239 W/m² | - |
| 1778013639 | 14.44° C | 37% | 1014 hPa | 0 mm | 2.68 m/s, 336° | 256 W/m² | - |
| 1778013335 | 14.44° C | 37% | 1014 hPa | 0 mm | 2.68 m/s, 256° | 294 W/m² | - |
| 1778013032 | 15° C | 39% | 1014.2 hPa | 0 mm | 1.79 m/s, 214° | 259 W/m² | - |
| 1778012728 | 15° C | 39% | 1014.1 hPa | 0 mm | 1.79 m/s, 259° | 348 W/m² | - |
| 1778012424 | 14.44° C | 40% | 1013.9 hPa | 0 mm | 1.34 m/s, 237° | 290 W/m² | - |
| 1778012122 | 14.44° C | 39% | 1014 hPa | 0 mm | 1.79 m/s, 218° | 255 W/m² | - |
| 1778011819 | 15° C | 38% | 1014.2 hPa | 0 mm | 0.89 m/s, 330° | 273 W/m² | - |
| 1778011517 | 14.44° C | 41% | 1014.3 hPa | 0 mm | 0.89 m/s, 282° | 325 W/m² | - |
| 1778011214 | 13.89° C | 39% | 1014.3 hPa | 0 mm | 2.68 m/s, 279° | 385 W/m² | - |
| 1778010909 | 13.89° C | 39% | 1014.5 hPa | 0 mm | 2.68 m/s, 254° | 233 W/m² | - |
| 1778010607 | 14.44° C | 39% | 1014.5 hPa | 0 mm | 2.24 m/s, 352° | 231 W/m² | - |
| 1778010304 | 13.89° C | 39% | 1014.4 hPa | 0 mm | 1.34 m/s, 277° | 224 W/m² | - |
* Rain latest hour (hover to see other rain measurements)
** Current wind speed in m/s (hover to see current wind gust speed)